Golden Hills, California
Current Conditions -  °F | °C
As of 12:15 AM on Tuesday 27 Jan 2015 (Local Time) from KTSP Reporting Station
Light Rain Light Rain  
Wind Chill: 38°   Ceiling: 1200
Heat Index: 45°   Visibility: 4mi
Dew Point: 45°   Wind: 13mph
Humidity: 100%   Direction: 130°SE
Pressure: 30.15"   Gusts: NA
Location:  35.1338°N, 118.552°W
Report Text: KTSP 270815Z AUTO 13011KT 4SM -RA FEW008 BKN012 OVC018 07/07 A3015 RMK AO2
Loading
Personal Weather Stations






























Interactive Weather Map New forecast layout! Learn more

10-Day Weather Forecast

Advertisements
Track Severe Weather on mobile